Time;durP1;ratioP1;P1;durP2;ratioP2;P2;SDS_P1;SDS_P2;PMS_P1;PMS_P2;Temp;Humidity;BMP_temperature;BMP_pressure;BME280_temperature;BME280_humidity;BME280_pressure;Samples;Min_cycle;Max_cycle;Signal;HPM_P1;HPM_P2
2023/01/01 00:01:45;;;;;;;5.55;1.70;;;26.50;99.90;;;;;;5051872;28;20847;-90
2023/01/01 00:04:14;;;;;;;7.47;1.60;;;26.80;99.90;;;;;;5051152;28;20388;-89
2023/01/01 00:06:41;;;;;;;6.88;1.73;;;26.80;99.60;;;;;;5033628;28;20773;-89
2023/01/01 00:11:53;;;;;;;6.43;1.70;;;27.20;98.30;;;;;;5050912;28;20720;-89
2023/01/01 00:14:23;;;;;;;5.75;1.67;;;27.30;98.90;;;;;;5038352;28;20380;-90
2023/01/01 00:16:50;;;;;;;6.93;1.48;;;27.70;98.40;;;;;;5033328;28;20421;-89
2023/01/01 00:19:17;;;;;;;6.70;1.60;;;28.10;96.30;;;;;;5051900;28;20383;-89
2023/01/01 00:21:45;;;;;;;5.15;1.90;;;28.20;95.80;;;;;;5070050;28;20902;-89
2023/01/01 00:24:12;;;;;;;4.75;1.60;;;28.10;96.10;;;;;;5046457;28;20991;-89
2023/01/01 00:26:39;;;;;;;5.70;1.60;;;28.20;95.40;;;;;;5070578;28;20401;-89
2023/01/01 00:29:06;;;;;;;5.25;1.40;;;28.30;95.20;;;;;;5052419;28;20405;-89
2023/01/01 00:31:33;;;;;;;5.80;1.50;;;28.50;94.70;;;;;;5051731;28;20385;-89
2023/01/01 00:34:00;;;;;;;5.75;1.48;;;28.50;94.90;;;;;;5061548;28;20375;-89
2023/01/01 00:36:27;;;;;;;4.95;1.58;;;28.80;94.30;;;;;;5050331;28;20411;-89
2023/01/01 00:38:55;;;;;;;6.45;1.73;;;29.60;94.60;;;;;;5050594;28;20410;-88
2023/01/01 00:41:22;;;;;;;6.13;1.53;;;30.10;93.60;;;;;;5050920;28;20378;-89
2023/01/01 00:43:49;;;;;;;4.47;1.60;;;30.20;92.30;;;;;;5032302;28;20388;-87
2023/01/01 00:46:16;;;;;;;5.28;1.60;;;30.00;92.80;;;;;;5050764;28;20379;-89
2023/01/01 00:48:43;;;;;;;3.85;1.40;;;30.00;92.60;;;;;;5050559;28;20399;-89
2023/01/01 00:51:10;;;;;;;5.80;1.70;;;30.10;92.10;;;;;;5063354;28;20368;-90
2023/01/01 00:53:37;;;;;;;5.78;1.48;;;30.40;90.90;;;;;;5051045;28;20372;-89
2023/01/01 00:56:05;;;;;;;5.35;1.73;;;30.30;91.10;;;;;;5051153;28;20368;-89
2023/01/01 00:58:32;;;;;;;4.15;1.70;;;30.30;90.00;;;;;;5050693;28;20388;-90
2023/01/01 01:00:59;;;;;;;3.75;1.60;;;30.10;91.10;;;;;;5033900;28;20398;-89
2023/01/01 01:03:29;;;;;;;5.50;1.63;;;30.10;90.00;;;;;;5033144;28;20419;-89
2023/01/01 01:06:08;;;;;;;4.67;1.67;;;29.70;89.40;;;;;;5053595;28;20374;-89
2023/01/01 01:08:37;;;;;;;4.27;1.50;;;29.40;90.50;;;;;;4926280;28;3165608;-89
2023/01/01 01:11:08;;;;;;;4.45;1.55;;;29.80;90.50;;;;;;5053214;28;20848;-89
2023/01/01 01:13:36;;;;;;;5.40;1.70;;;30.10;90.00;;;;;;5034958;28;20399;-88
2023/01/01 01:16:15;;;;;;;6.15;1.70;;;30.50;90.00;;;;;;5052670;28;20451;-88
2023/01/01 01:18:43;;;;;;;7.15;1.80;;;31.00;88.50;;;;;;5035405;28;20413;-89
2023/01/01 01:21:10;;;;;;;5.57;1.80;;;31.20;88.00;;;;;;5052960;28;20415;-89
2023/01/01 01:23:37;;;;;;;7.03;1.85;;;31.30;87.40;;;;;;5055222;28;20372;-90
2023/01/01 01:26:10;;;;;;;7.25;2.20;;;31.40;87.20;;;;;;5055481;28;20485;-89
2023/01/01 01:28:37;;;;;;;5.00;1.83;;;31.00;88.50;;;;;;5053218;28;20413;-89
2023/01/01 01:31:04;;;;;;;5.13;1.90;;;30.70;87.90;;;;;;5052314;28;20402;-89
2023/01/01 01:33:31;;;;;;;4.63;1.90;;;31.20;88.00;;;;;;5054332;28;20386;-90
2023/01/01 01:35:58;;;;;;;6.15;1.92;;;31.80;86.20;;;;;;5052604;28;20407;-90
2023/01/01 01:38:25;;;;;;;8.73;2.17;;;32.10;85.70;;;;;;5065535;28;20380;-90
2023/01/01 01:40:52;;;;;;;6.03;2.00;;;32.40;85.20;;;;;;5034781;28;20388;-89
2023/01/01 01:43:35;;;;;;;6.53;2.00;;;32.80;82.90;;;;;;5039381;28;20739;-87
2023/01/01 01:46:10;;;;;;;6.80;2.10;;;32.50;83.20;;;;;;5057856;28;20884;-90
2023/01/01 01:48:41;;;;;;;5.40;2.30;;;32.30;83.60;;;;;;5033610;28;20446;-89
2023/01/01 01:51:09;;;;;;;6.40;2.17;;;32.20;85.30;;;;;;5053329;28;20386;-89
2023/01/01 01:53:42;;;;;;;6.60;2.28;;;32.50;85.20;;;;;;5061747;28;20460;-91
2023/01/01 01:56:14;;;;;;;5.32;2.13;;;33.00;84.00;;;;;;5070942;28;20903;-89
2023/01/01 01:58:41;;;;;;;6.72;2.65;;;33.10;82.40;;;;;;5070885;28;20513;-90
2023/01/01 02:01:08;;;;;;;7.20;2.65;;;32.70;82.40;;;;;;5052800;28;20386;-89
2023/01/01 02:03:48;;;;;;;6.18;1.92;;;32.00;84.60;;;;;;5071213;28;20377;-89
2023/01/01 02:06:17;;;;;;;8.75;2.00;;;31.60;84.80;;;;;;5071160;28;20796;-88
2023/01/01 02:08:44;;;;;;;5.55;2.03;;;31.40;84.30;;;;;;5071853;28;20405;-88
2023/01/01 02:11:11;;;;;;;4.65;1.88;;;31.90;83.40;;;;;;5076469;28;20499;-89
2023/01/01 02:13:38;;;;;;;5.72;1.98;;;32.60;81.20;;;;;;5081675;28;20370;-89
2023/01/01 02:16:32;;;;;;;5.00;1.70;;;32.90;79.40;;;;;;5075409;28;20370;-89
2023/01/01 02:19:39;;;;;;;4.85;1.65;;;33.40;79.80;;;;;;5072639;28;20368;-87
2023/01/01 02:22:15;;;;;;;5.50;1.83;;;33.80;77.60;;;;;;5071767;28;20436;-89
2023/01/01 02:24:55;;;;;;;5.10;2.00;;;33.50;78.00;;;;;;5072999;28;20457;-89
2023/01/01 02:27:40;;;;;;;4.68;1.50;;;33.20;78.20;;;;;;5047761;28;20383;-90
2023/01/01 02:30:10;;;;;;;4.47;1.55;;;33.10;77.50;;;;;;5072460;28;20924;-89
2023/01/01 02:32:56;;;;;;;3.77;1.60;;;32.80;76.80;;;;;;5054649;28;20415;-89
2023/01/01 02:35:34;;;;;;;6.68;1.92;;;32.20;78.30;;;;;;5066250;28;20503;-89
2023/01/01 02:38:30;;;;;;;5.17;1.83;;;31.70;78.40;;;;;;5067696;28;20565;-89
2023/01/01 02:41:01;;;;;;;5.75;1.63;;;32.40;79.30;;;;;;4971862;28;20877;-91
2023/01/01 02:43:28;;;;;;;5.22;1.80;;;33.70;77.10;;;;;;4971191;28;20926;-90
2023/01/01 02:45:56;;;;;;;5.63;1.80;;;33.90;74.40;;;;;;4959391;28;20483;-89
2023/01/01 02:48:46;;;;;;;7.00;2.13;;;33.40;74.40;;;;;;4971870;28;20414;-88
2023/01/01 02:51:46;;;;;;;8.35;2.30;;;32.90;77.80;;;;;;4967929;28;20389;-87
2023/01/01 02:54:45;;;;;;;8.95;2.60;;;31.70;81.20;;;;;;4953977;28;20767;-89
2023/01/01 02:57:18;;;;;;;7.00;2.67;;;30.10;86.00;;;;;;4970838;28;20862;-86
2023/01/01 03:00:46;;;;;;;7.67;3.00;;;30.40;87.60;;;;;;4958513;28;20415;-89
2023/01/01 03:03:44;;;;;;;6.75;2.30;;;30.60;86.50;;;;;;4969153;28;20401;-88
2023/01/01 03:06:37;;;;;;;7.63;2.30;;;30.90;86.90;;;;;;4931865;29;20394;-93
2023/01/01 03:09:31;;;;;;;6.00;2.00;;;32.30;83.10;;;;;;4919734;29;20429;-80
2023/01/01 03:12:08;;;;;;;5.43;2.10;;;33.30;80.70;;;;;;4918294;29;20509;-80
2023/01/01 03:14:49;;;;;;;6.45;2.00;;;33.90;79.00;;;;;;4933539;29;20417;-82
2023/01/01 03:17:25;;;;;;;5.75;1.90;;;34.00;77.90;;;;;;4975115;28;20393;-81
2023/01/01 03:19:55;;;;;;;5.35;1.90;;;33.90;76.70;;;;;;5021942;28;20468;-86
2023/01/01 03:22:28;;;;;;;4.90;2.00;;;33.80;78.00;;;;;;5017186;28;20382;-80
2023/01/01 03:25:18;;;;;;;4.93;2.10;;;34.50;76.10;;;;;;5007740;28;20424;-81
2023/01/01 03:28:04;;;;;;;6.22;2.00;;;34.80;74.30;;;;;;5010009;28;20395;-83
2023/01/01 03:30:33;;;;;;;4.75;1.70;;;35.00;73.20;;;;;;5004784;28;20492;-78
2023/01/01 03:33:06;;;;;;;3.45;1.80;;;35.40;72.00;;;;;;5028345;28;20407;-83
2023/01/01 03:35:58;;;;;;;5.60;1.80;;;35.50;71.20;;;;;;5014174;28;21254;-83
2023/01/01 03:38:37;;;;;;;4.05;1.80;;;35.30;71.40;;;;;;5009511;28;20435;-80
2023/01/01 03:41:12;;;;;;;4.90;1.90;;;35.20;71.60;;;;;;5061870;28;20746;-81
2023/01/01 03:43:51;;;;;;;4.63;1.70;;;35.90;69.90;;;;;;5061734;28;20387;-81
2023/01/01 03:46:25;;;;;;;6.07;1.90;;;35.60;69.10;;;;;;5067864;28;20389;-82
2023/01/01 03:48:56;;;;;;;5.25;1.80;;;35.40;69.20;;;;;;5077520;28;20432;-80
2023/01/01 03:51:44;;;;;;;5.20;2.10;;;35.70;68.70;;;;;;5070416;28;20376;-80
2023/01/01 03:54:41;;;;;;;4.38;1.88;;;36.10;68.00;;;;;;5066749;28;20761;-80
2023/01/01 03:57:39;;;;;;;4.90;1.90;;;36.90;67.30;;;;;;5071397;28;20388;-80
2023/01/01 04:00:10;;;;;;;4.10;2.00;;;37.30;64.80;;;;;;5040936;28;20372;-81
2023/01/01 04:02:43;;;;;;;4.10;1.80;;;37.10;64.50;;;;;;5051185;28;20716;-80
2023/01/01 04:05:11;;;;;;;4.07;1.87;;;36.70;65.30;;;;;;5062127;28;20366;-80
2023/01/01 04:07:39;;;;;;;4.93;1.80;;;36.50;65.30;;;;;;5069697;28;20420;-80
2023/01/01 04:10:16;;;;;;;6.10;1.80;;;35.70;63.90;;;;;;5070372;28;20942;-80
2023/01/01 04:12:50;;;;;;;4.90;1.70;;;35.00;66.30;;;;;;5066771;28;20374;-78
2023/01/01 04:15:19;;;;;;;5.03;1.70;;;35.00;65.40;;;;;;5068450;28;20389;-81
2023/01/01 04:17:46;;;;;;;5.55;1.80;;;34.50;65.60;;;;;;5069749;28;20413;-80
2023/01/01 04:20:14;;;;;;;5.87;1.60;;;34.50;66.40;;;;;;5068278;28;20386;-80
2023/01/01 04:22:41;;;;;;;7.00;2.00;;;34.50;65.70;;;;;;5069018;28;20370;-80
2023/01/01 04:25:09;;;;;;;4.30;1.70;;;34.80;65.50;;;;;;5067104;28;20375;-80
2023/01/01 04:27:37;;;;;;;5.05;1.77;;;35.20;65.90;;;;;;5069386;28;20385;-80
2023/01/01 04:30:06;;;;;;;3.43;1.70;;;35.60;64.50;;;;;;5067317;28;20407;-80
2023/01/01 04:32:33;;;;;;;5.72;1.80;;;36.20;63.40;;;;;;5068291;28;20397;-81
2023/01/01 04:35:00;;;;;;;4.30;1.77;;;36.40;63.40;;;;;;5066549;28;20392;-80
2023/01/01 04:37:27;;;;;;;4.43;1.70;;;36.80;62.00;;;;;;5068297;28;20378;-80
2023/01/01 04:39:54;;;;;;;6.07;1.80;;;36.90;62.10;;;;;;5066873;28;20414;-80
2023/01/01 04:42:21;;;;;;;5.45;1.70;;;37.10;61.60;;;;;;5068404;28;20430;-80
2023/01/01 04:44:48;;;;;;;4.22;1.70;;;37.50;61.10;;;;;;5065894;28;20404;-80
2023/01/01 04:47:15;;;;;;;6.23;2.10;;;37.50;60.90;;;;;;5068273;28;20373;-81
2023/01/01 04:49:42;;;;;;;4.82;1.90;;;37.20;62.00;;;;;;5065316;28;20409;-80
2023/01/01 04:52:09;;;;;;;5.07;1.90;;;35.80;63.50;;;;;;5039787;28;20398;-81
2023/01/01 04:54:36;;;;;;;4.28;1.88;;;35.20;65.10;;;;;;5054433;28;20382;-80
2023/01/01 04:57:03;;;;;;;5.53;1.70;;;35.60;64.80;;;;;;5058703;28;20380;-80
2023/01/01 04:59:30;;;;;;;5.82;1.90;;;35.90;63.10;;;;;;5050509;28;20931;-80
2023/01/01 05:01:58;;;;;;;5.03;1.83;;;36.00;64.20;;;;;;5050623;28;20770;-79
2023/01/01 05:04:25;;;;;;;4.22;1.80;;;36.40;62.70;;;;;;5050912;28;20736;-82
2023/01/01 05:06:52;;;;;;;4.57;1.70;;;36.70;60.90;;;;;;5050505;28;20399;-80
2023/01/01 05:09:19;;;;;;;5.03;1.80;;;37.00;60.80;;;;;;5050671;28;20407;-80
2023/01/01 05:11:46;;;;;;;5.05;1.73;;;37.20;61.00;;;;;;5050180;28;20376;-80
2023/01/01 05:14:13;;;;;;;4.13;1.70;;;37.60;60.00;;;;;;5050141;28;20405;-79
2023/01/01 05:16:40;;;;;;;6.47;1.90;;;37.30;59.50;;;;;;5062669;28;20453;-80
2023/01/01 05:19:08;;;;;;;5.55;1.80;;;37.00;60.20;;;;;;5069203;28;20773;-80
2023/01/01 05:21:36;;;;;;;6.65;1.80;;;36.70;60.50;;;;;;5069586;28;20371;-81
2023/01/01 05:24:06;;;;;;;7.15;2.03;;;35.60;61.40;;;;;;5069091;28;20374;-81
2023/01/01 05:26:40;;;;;;;8.50;1.90;;;34.40;64.00;;;;;;5068858;28;20378;-80
2023/01/01 05:29:07;;;;;;;5.97;2.20;;;33.40;65.90;;;;;;5069416;28;20881;-80
2023/01/01 05:31:35;;;;;;;6.20;1.90;;;32.60;67.60;;;;;;5054448;28;20376;-80
2023/01/01 05:34:03;;;;;;;9.00;2.13;;;31.90;68.70;;;;;;5050026;28;20387;-80
2023/01/01 05:36:37;;;;;;;7.70;2.17;;;31.60;69.40;;;;;;5050141;28;20376;-80
2023/01/01 05:39:11;;;;;;;6.35;1.92;;;31.20;70.80;;;;;;5049644;28;20533;-80
2023/01/01 05:41:38;;;;;;;5.80;1.93;;;31.00;71.50;;;;;;5050002;28;20375;-79
2023/01/01 05:44:07;;;;;;;6.45;2.00;;;30.90;71.20;;;;;;5052532;28;20466;-79
2023/01/01 05:46:34;;;;;;;6.07;1.88;;;30.70;71.60;;;;;;5053568;28;20390;-80
2023/01/01 05:49:01;;;;;;;5.07;1.80;;;30.80;72.20;;;;;;5053838;28;20402;-81
2023/01/01 05:51:29;;;;;;;7.43;1.95;;;31.10;71.40;;;;;;5050460;28;20391;-77
2023/01/01 05:53:57;;;;;;;5.13;1.80;;;32.10;70.20;;;;;;5052260;28;20803;-80
2023/01/01 05:56:24;;;;;;;6.78;2.05;;;33.30;66.50;;;;;;5061446;28;20382;-77
2023/01/01 05:58:51;;;;;;;6.18;1.73;;;33.80;65.60;;;;;;5062304;28;20469;-79
2023/01/01 06:01:24;;;;;;;6.30;1.80;;;34.70;64.10;;;;;;5058851;28;20374;-74
2023/01/01 06:03:52;;;;;;;4.77;1.83;;;35.70;62.60;;;;;;5050193;28;20740;-76
2023/01/01 06:06:25;;;;;;;5.38;1.83;;;35.70;61.00;;;;;;5066563;28;20387;-81
2023/01/01 06:08:54;;;;;;;5.15;1.73;;;34.90;61.40;;;;;;5061681;28;20406;-77
2023/01/01 06:11:22;;;;;;;6.57;1.80;;;34.30;62.00;;;;;;5040127;28;20888;-76
2023/01/01 06:13:55;;;;;;;5.25;1.70;;;34.60;61.80;;;;;;5064366;28;20370;-79
2023/01/01 06:16:22;;;;;;;4.47;1.60;;;35.10;61.20;;;;;;5053755;28;20426;-76
2023/01/01 06:18:49;;;;;;;6.20;1.67;;;35.50;59.60;;;;;;5051678;28;20380;-76
2023/01/01 06:21:22;;;;;;;5.50;1.77;;;35.40;59.90;;;;;;5063286;28;20381;-81
2023/01/01 06:23:49;;;;;;;4.80;1.60;;;35.50;59.50;;;;;;5071315;28;20390;-75
2023/01/01 06:26:18;;;;;;;5.82;1.88;;;35.70;59.30;;;;;;5054849;28;21035;-74
2023/01/01 06:28:46;;;;;;;4.88;1.70;;;35.60;59.30;;;;;;5060364;28;20407;-75
2023/01/01 06:31:19;;;;;;;5.35;1.88;;;35.30;59.60;;;;;;5047561;28;20445;-75
2023/01/01 06:33:46;;;;;;;5.87;1.70;;;35.60;59.10;;;;;;5045422;28;20427;-75
2023/01/01 06:36:15;;;;;;;3.77;1.50;;;35.60;58.80;;;;;;5072709;28;20389;-74
2023/01/01 06:38:44;;;;;;;4.55;1.67;;;35.50;59.00;;;;;;5053702;28;20407;-77
2023/01/01 06:41:13;;;;;;;5.75;1.65;;;35.70;59.00;;;;;;5033549;28;20473;-77
2023/01/01 06:43:40;;;;;;;6.70;1.60;;;35.70;58.60;;;;;;5052252;28;20388;-75
2023/01/01 06:46:13;;;;;;;4.20;1.60;;;35.20;58.70;;;;;;5053690;28;20433;-77
2023/01/01 06:48:40;;;;;;;3.92;1.30;;;34.90;59.70;;;;;;5051586;28;20400;-76
2023/01/01 06:51:15;;;;;;;4.28;1.58;;;34.90;59.40;;;;;;5045782;28;20386;-76
2023/01/01 06:53:42;;;;;;;5.53;1.70;;;34.90;59.40;;;;;;5048498;28;20382;-74
2023/01/01 06:56:10;;;;;;;6.05;1.60;;;34.90;59.30;;;;;;5056170;28;20465;-75
2023/01/01 06:58:37;;;;;;;5.13;1.90;;;34.00;61.10;;;;;;5056471;28;20383;-76
2023/01/01 07:01:11;;;;;;;5.72;1.63;;;32.90;63.40;;;;;;5056106;28;20424;-76
2023/01/01 07:03:38;;;;;;;6.35;2.00;;;32.00;64.90;;;;;;5060766;28;20391;-76
2023/01/01 07:06:06;;;;;;;7.45;1.85;;;31.10;67.60;;;;;;5050250;28;20383;-75
2023/01/01 07:08:34;;;;;;;7.85;2.05;;;30.70;69.80;;;;;;5060538;28;20757;-79
2023/01/01 07:11:02;;;;;;;6.03;1.98;;;31.10;69.30;;;;;;5052139;28;20800;-78
2023/01/01 07:13:30;;;;;;;5.65;1.90;;;31.70;68.30;;;;;;5051059;28;20434;-76
2023/01/01 07:15:57;;;;;;;7.68;2.00;;;32.10;66.50;;;;;;5046001;28;20489;-76
2023/01/01 07:18:25;;;;;;;6.05;2.00;;;31.60;67.20;;;;;;5046440;28;20919;-76
2023/01/01 07:20:57;;;;;;;6.38;2.00;;;30.90;68.50;;;;;;5069924;28;20394;-76
2023/01/01 07:23:26;;;;;;;5.87;1.90;;;30.50;70.10;;;;;;5040935;28;20393;-76
2023/01/01 07:25:54;;;;;;;8.85;1.92;;;30.60;70.50;;;;;;5054315;28;20393;-76
2023/01/01 07:28:21;;;;;;;5.60;1.90;;;31.00;70.50;;;;;;5044886;28;20447;-76
2023/01/01 07:30:49;;;;;;;6.28;1.80;;;31.40;69.60;;;;;;5039999;28;20397;-75
2023/01/01 07:33:20;;;;;;;6.22;1.55;;;31.30;69.10;;;;;;5046122;28;20740;-75
2023/01/01 07:35:47;;;;;;;6.80;1.70;;;31.40;67.10;;;;;;5059914;28;20424;-75
2023/01/01 07:38:14;;;;;;;6.28;1.75;;;31.70;67.00;;;;;;5047354;28;20428;-75
2023/01/01 07:40:42;;;;;;;6.07;1.90;;;31.50;67.50;;;;;;5050995;28;20390;-75
2023/01/01 07:43:11;;;;;;;7.03;1.90;;;31.10;68.40;;;;;;5070496;28;20397;-76
2023/01/01 07:45:38;;;;;;;7.05;2.03;;;31.00;67.90;;;;;;5063872;28;20740;-77
2023/01/01 07:48:06;;;;;;;5.43;1.80;;;30.80;68.10;;;;;;5056640;28;20429;-80
2023/01/01 07:50:34;;;;;;;6.10;1.80;;;30.90;68.30;;;;;;5069336;28;20376;-78
2023/01/01 07:53:01;;;;;;;6.53;2.00;;;31.00;68.10;;;;;;5035406;28;20399;-77
2023/01/01 07:55:28;;;;;;;5.28;1.88;;;30.80;68.30;;;;;;5052576;28;20398;-76
2023/01/01 07:57:55;;;;;;;6.18;1.80;;;30.50;68.70;;;;;;5064885;28;20372;-75
2023/01/01 08:00:22;;;;;;;6.57;1.90;;;30.40;68.80;;;;;;5049613;28;20384;-76
2023/01/01 08:02:49;;;;;;;5.33;1.80;;;30.10;70.10;;;;;;5070341;28;20416;-75
2023/01/01 08:05:16;;;;;;;5.82;1.80;;;30.10;70.60;;;;;;5056888;28;20851;-78
2023/01/01 08:07:52;;;;;;;5.63;1.70;;;29.80;70.80;;;;;;5062150;28;20398;-75
2023/01/01 08:10:20;;;;;;;7.28;1.90;;;29.40;71.50;;;;;;5070813;28;20406;-81
2023/01/01 08:12:47;;;;;;;6.33;1.97;;;29.20;73.10;;;;;;5066277;28;20396;-83
2023/01/01 08:15:15;;;;;;;7.90;2.00;;;28.90;73.50;;;;;;5065889;28;20871;-75
2023/01/01 08:17:42;;;;;;;7.05;1.90;;;28.50;74.10;;;;;;5049139;28;20441;-73
2023/01/01 08:20:28;;;;;;;12.05;2.45;;;28.00;75.50;;;;;;5058891;28;20410;-81
2023/01/01 08:22:55;;;;;;;10.13;2.38;;;27.70;76.50;;;;;;5030192;28;20962;-77
2023/01/01 08:25:22;;;;;;;9.90;2.30;;;27.20;77.20;;;;;;5060188;28;20392;-83
2023/01/01 08:27:49;;;;;;;7.50;2.20;;;26.90;78.20;;;;;;5052926;28;20389;-77
2023/01/01 08:30:16;;;;;;;10.10;2.50;;;26.70;79.50;;;;;;5069782;28;20402;-76
2023/01/01 08:32:43;;;;;;;9.03;2.30;;;26.60;80.30;;;;;;5070696;28;20772;-78
2023/01/01 08:35:10;;;;;;;10.63;2.30;;;26.50;81.20;;;;;;5047799;28;20393;-79
2023/01/01 08:37:37;;;;;;;10.45;2.40;;;26.20;82.40;;;;;;5054708;28;20453;-76
2023/01/01 08:40:04;;;;;;;8.02;2.30;;;26.10;82.90;;;;;;5050756;28;20439;-78
2023/01/01 08:42:31;;;;;;;8.52;2.40;;;25.90;83.60;;;;;;5068671;28;20742;-83
2023/01/01 08:44:58;;;;;;;9.35;2.40;;;25.70;84.40;;;;;;5071186;28;20423;-78
2023/01/01 08:47:26;;;;;;;9.52;2.20;;;25.60;84.90;;;;;;5072208;28;20400;-77
2023/01/01 08:49:53;;;;;;;9.33;2.30;;;25.50;85.10;;;;;;5069331;28;20411;-77
2023/01/01 08:52:21;;;;;;;8.27;2.20;;;25.40;85.10;;;;;;5049619;28;20384;-80
2023/01/01 08:54:48;;;;;;;10.02;2.60;;;25.20;86.20;;;;;;5034096;28;20435;-76
2023/01/01 08:57:15;;;;;;;9.65;2.40;;;25.10;87.10;;;;;;5052468;28;20391;-76
2023/01/01 08:59:42;;;;;;;15.18;2.50;;;25.10;87.60;;;;;;5043545;28;20453;-78
2023/01/01 09:02:10;;;;;;;10.35;2.38;;;25.10;88.00;;;;;;5046493;28;20388;-76
2023/01/01 09:04:37;;;;;;;9.53;2.60;;;25.00;88.30;;;;;;5069227;28;20966;-80
2023/01/01 09:07:04;;;;;;;11.63;2.60;;;24.90;88.30;;;;;;5051498;28;20416;-78
2023/01/01 09:09:33;;;;;;;10.02;2.15;;;24.80;88.10;;;;;;5056598;28;20399;-76
2023/01/01 09:12:04;;;;;;;10.93;2.20;;;24.80;88.30;;;;;;5057820;28;20376;-79
2023/01/01 09:14:33;;;;;;;10.43;2.47;;;24.70;89.10;;;;;;5059817;28;20390;-79
2023/01/01 09:17:00;;;;;;;9.13;2.50;;;24.70;90.10;;;;;;5044135;28;20380;-78
2023/01/01 09:19:27;;;;;;;10.43;2.42;;;24.60;90.40;;;;;;5047561;28;20414;-76
2023/01/01 09:21:54;;;;;;;10.25;2.47;;;24.60;90.60;;;;;;5047757;28;20381;-77
2023/01/01 09:24:21;;;;;;;8.80;2.33;;;24.50;91.10;;;;;;5061294;28;20496;-80
2023/01/01 09:26:48;;;;;;;9.15;2.40;;;24.40;91.40;;;;;;5048024;28;20397;-79
2023/01/01 09:29:20;;;;;;;9.07;2.50;;;24.40;91.70;;;;;;5057426;28;20405;-79
2023/01/01 09:31:48;;;;;;;12.00;2.72;;;24.40;92.20;;;;;;5050043;28;20890;-79
2023/01/01 09:34:16;;;;;;;9.85;2.42;;;24.40;92.90;;;;;;5044780;28;20403;-83
2023/01/01 09:36:43;;;;;;;9.20;2.53;;;24.30;93.40;;;;;;5053402;28;20368;-84
2023/01/01 09:39:14;;;;;;;11.27;2.70;;;24.30;93.90;;;;;;5048672;28;20384;-79
2023/01/01 09:42:22;;;;;;;13.75;2.80;;;24.20;94.40;;;;;;5053166;28;20407;-82
2023/01/01 09:45:21;;;;;;;13.18;2.90;;;24.30;94.70;;;;;;4985665;28;20557;-82
2023/01/01 09:47:53;;;;;;;13.50;2.90;;;24.20;95.30;;;;;;4992788;28;20469;-83
2023/01/01 09:50:49;;;;;;;12.68;2.70;;;24.40;95.60;;;;;;4990881;28;20525;-80
2023/01/01 09:53:42;;;;;;;12.15;2.60;;;24.30;96.10;;;;;;4990173;28;20500;-79
2023/01/01 09:56:40;;;;;;;14.35;2.70;;;24.30;96.50;;;;;;4984002;28;20512;-81
2023/01/01 09:59:13;;;;;;;12.80;2.75;;;24.10;97.20;;;;;;4984938;28;20377;-83
2023/01/01 10:02:07;;;;;;;11.75;2.90;;;24.20;98.00;;;;;;4955404;28;20941;-80
2023/01/01 10:04:55;;;;;;;12.65;3.13;;;24.00;98.70;;;;;;4990855;28;20381;-83
2023/01/01 10:07:49;;;;;;;12.75;2.90;;;24.00;99.30;;;;;;5004307;28;20408;-80
2023/01/01 10:10:32;;;;;;;12.43;2.80;;;23.90;99.90;;;;;;4984523;28;20429;-81
2023/01/01 10:13:16;;;;;;;12.37;3.10;;;23.90;99.90;;;;;;4989883;28;20388;-85
2023/01/01 10:15:58;;;;;;;13.32;3.13;;;24.00;99.90;;;;;;4983434;28;20397;-80
2023/01/01 10:18:32;;;;;;;14.13;2.83;;;23.90;99.90;;;;;;5001565;28;20401;-81
2023/01/01 10:21:14;;;;;;;12.40;2.80;;;23.80;99.90;;;;;;5037066;28;20868;-84
2023/01/01 10:23:48;;;;;;;12.88;2.70;;;23.80;99.90;;;;;;5047852;28;20403;-85
2023/01/01 10:26:20;;;;;;;14.50;3.05;;;23.80;99.90;;;;;;5049938;28;20761;-83
2023/01/01 10:29:09;;;;;;;13.43;3.10;;;23.90;99.90;;;;;;5032566;28;20885;-82
2023/01/01 10:31:39;;;;;;;15.48;2.85;;;23.80;99.90;;;;;;5047892;28;20721;-80
2023/01/01 10:34:17;;;;;;;13.57;2.83;;;23.80;99.90;;;;;;5047965;28;20423;-78
2023/01/01 10:36:45;;;;;;;11.88;2.85;;;23.80;99.90;;;;;;5048238;28;20384;-81
2023/01/01 10:39:18;;;;;;;12.03;2.70;;;23.70;99.90;;;;;;5042941;28;20406;-83
2023/01/01 10:41:45;;;;;;;14.35;3.08;;;23.50;99.90;;;;;;5071283;28;20378;-83
2023/01/01 10:44:15;;;;;;;11.98;3.10;;;23.50;99.90;;;;;;5074106;28;20401;-80
2023/01/01 10:46:47;;;;;;;12.07;2.58;;;23.50;99.90;;;;;;5072078;28;20429;-78
2023/01/01 10:49:15;;;;;;;12.95;3.00;;;23.40;99.90;;;;;;5055423;28;20443;-85
2023/01/01 10:51:48;;;;;;;13.68;2.90;;;23.30;99.90;;;;;;5056253;28;20400;-80
2023/01/01 10:54:36;;;;;;;13.55;2.90;;;23.30;99.90;;;;;;5057201;28;20463;-78
2023/01/01 10:57:21;;;;;;;14.50;3.10;;;23.30;99.90;;;;;;5055555;28;20513;-78
2023/01/01 10:59:48;;;;;;;10.13;2.40;;;23.40;99.90;;;;;;5052683;28;20383;-79
2023/01/01 11:02:25;;;;;;;12.38;2.65;;;23.40;99.90;;;;;;5055640;28;20395;-81
2023/01/01 11:05:12;;;;;;;12.50;2.90;;;23.40;99.90;;;;;;5050637;28;20411;-82
2023/01/01 11:07:41;;;;;;;11.13;2.55;;;23.40;99.90;;;;;;5053922;28;20407;-82
2023/01/01 11:10:19;;;;;;;10.87;2.50;;;23.40;99.90;;;;;;5057897;28;20433;-82
2023/01/01 11:12:47;;;;;;;13.48;2.75;;;23.40;99.90;;;;;;5055137;28;20410;-81
2023/01/01 11:15:40;;;;;;;10.43;2.63;;;23.40;99.90;;;;;;5037927;28;20376;-84
2023/01/01 11:18:15;;;;;;;12.98;2.70;;;23.50;99.90;;;;;;5041169;28;20385;-77
2023/01/01 11:20:43;;;;;;;13.73;2.88;;;23.50;99.90;;;;;;5052550;28;20377;-86
2023/01/01 11:23:39;;;;;;;11.63;2.65;;;23.60;99.90;;;;;;5048189;28;20384;-78
2023/01/01 11:26:12;;;;;;;14.38;2.90;;;23.50;99.90;;;;;;4964561;28;20454;-79
2023/01/01 11:28:40;;;;;;;15.13;2.70;;;23.50;99.90;;;;;;4972474;28;20410;-82
2023/01/01 11:31:18;;;;;;;10.35;2.70;;;23.50;99.90;;;;;;4963578;28;20400;-82
2023/01/01 11:33:53;;;;;;;12.82;2.90;;;23.50;99.90;;;;;;4972073;28;20414;-86
2023/01/01 11:36:32;;;;;;;13.23;2.97;;;23.40;99.90;;;;;;4964994;28;20423;-81
2023/01/01 11:39:15;;;;;;;11.13;2.78;;;23.30;99.90;;;;;;4967249;28;20401;-86
2023/01/01 11:41:44;;;;;;;13.35;2.80;;;23.30;99.90;;;;;;4967998;28;20384;-85
2023/01/01 11:44:21;;;;;;;11.02;2.50;;;23.20;99.90;;;;;;4962013;28;20545;-80
2023/01/01 11:46:48;;;;;;;11.43;2.63;;;23.20;99.90;;;;;;4970745;28;20394;-83
2023/01/01 11:49:24;;;;;;;13.48;2.90;;;23.10;99.90;;;;;;4969550;28;21019;-83
2023/01/01 11:51:51;;;;;;;12.02;3.00;;;23.10;99.90;;;;;;4964552;28;20380;-84
2023/01/01 11:54:34;;;;;;;12.85;2.92;;;23.00;99.90;;;;;;4967531;28;20404;-81
2023/01/01 11:57:27;;;;;;;15.52;2.92;;;22.90;99.90;;;;;;4968633;28;20395;-84
2023/01/01 12:00:00;;;;;;;15.48;2.88;;;22.80;99.90;;;;;;4972366;28;20890;-85
2023/01/01 12:02:40;;;;;;;10.38;2.90;;;22.70;99.90;;;;;;5011022;28;20395;-80
2023/01/01 12:05:13;;;;;;;13.15;2.95;;;22.60;99.90;;;;;;5069599;28;20382;-84
2023/01/01 12:07:43;;;;;;;16.45;3.08;;;22.50;99.90;;;;;;5051873;28;20474;-84
2023/01/01 12:10:32;;;;;;;12.68;2.97;;;22.40;99.90;;;;;;5048862;28;20449;-83
2023/01/01 12:13:17;;;;;;;12.18;2.90;;;23.60;99.90;;;;;;5042928;28;20380;-84
2023/01/01 12:16:12;;;;;;;12.80;2.70;;;22.40;99.90;;;;;;5047455;28;20389;-82
2023/01/01 12:19:15;;;;;;;14.80;3.03;;;22.30;99.90;;;;;;5041331;28;20781;-79
2023/01/01 12:21:45;;;;;;;12.60;2.80;;;22.30;99.90;;;;;;5039675;28;20912;-86
2023/01/01 12:24:13;;;;;;;12.48;2.88;;;22.30;99.90;;;;;;5048830;28;20890;-85
2023/01/01 12:26:46;;;;;;;15.43;3.15;;;22.20;99.90;;;;;;5048016;28;20370;-84
2023/01/01 12:29:16;;;;;;;14.35;2.88;;;22.30;99.90;;;;;;5042728;28;20410;-83
2023/01/01 12:32:23;;;;;;;13.15;3.08;;;22.20;99.90;;;;;;5048877;28;20430;-80
2023/01/01 12:35:04;;;;;;;11.45;2.90;;;22.20;99.90;;;;;;5046282;28;20395;-83
2023/01/01 12:37:50;;;;;;;12.60;3.22;;;22.20;99.90;;;;;;5032554;28;20384;-85
2023/01/01 12:41:14;;;;;;;13.15;2.90;;;22.20;99.90;;;;;;5046216;28;20383;-82
2023/01/01 12:43:59;;;;;;;17.58;3.25;;;22.10;99.90;;;;;;4968799;28;20477;-79
2023/01/01 12:46:39;;;;;;;14.87;3.27;;;22.10;99.90;;;;;;4969579;28;20394;-83
2023/01/01 12:49:30;;;;;;;10.82;3.00;;;22.10;99.90;;;;;;4969059;28;20946;-82
2023/01/01 12:52:04;;;;;;;16.08;3.58;;;22.10;99.90;;;;;;4959719;28;20394;-82
2023/01/01 12:54:49;;;;;;;12.25;3.00;;;22.20;99.90;;;;;;4969471;28;20438;-80
2023/01/01 12:57:29;;;;;;;12.93;3.00;;;22.20;99.90;;;;;;4973590;28;20395;-75
2023/01/01 13:00:00;;;;;;;10.80;2.80;;;22.30;99.90;;;;;;4968870;28;20403;-76
2023/01/01 13:02:29;;;;;;;11.40;2.80;;;22.40;99.90;;;;;;4968626;28;20386;-76
2023/01/01 13:05:26;;;;;;;13.65;2.90;;;22.40;99.90;;;;;;4968889;28;20399;-76
2023/01/01 13:07:59;;;;;;;11.20;2.80;;;22.40;99.90;;;;;;4970236;28;20461;-81
2023/01/01 13:10:27;;;;;;;12.02;2.88;;;22.40;99.90;;;;;;4969403;28;20950;-75
2023/01/01 13:12:56;;;;;;;10.93;2.67;;;22.40;99.90;;;;;;4952837;28;20391;-76
2023/01/01 13:15:38;;;;;;;29.45;3.45;;;22.30;99.90;;;;;;4968342;28;20404;-77
2023/01/01 13:18:26;;;;;;;22.13;3.22;;;22.30;99.90;;;;;;5026024;28;20392;-75